sensor_id;sensor_type;location;lat;lon;timestamp;P1;durP1;ratioP1;P2;durP2;ratioP2
32810;SDS011;65470;47.324;8.548;2023-02-11T00:00:06;33.33;;;22.63;;
32810;SDS011;65470;47.324;8.548;2023-02-11T00:02:32;31.15;;;21.40;;
32810;SDS011;65470;47.324;8.548;2023-02-11T00:04:58;34.95;;;22.20;;
32810;SDS011;65470;47.324;8.548;2023-02-11T00:07:30;33.58;;;21.83;;
32810;SDS011;65470;47.324;8.548;2023-02-11T00:09:57;35.50;;;22.85;;
32810;SDS011;65470;47.324;8.548;2023-02-11T00:12:23;32.75;;;22.25;;
32810;SDS011;65470;47.324;8.548;2023-02-11T00:14:48;31.83;;;20.80;;
32810;SDS011;65470;47.324;8.548;2023-02-11T00:17:14;37.13;;;24.40;;
32810;SDS011;65470;47.324;8.548;2023-02-11T00:19:40;33.63;;;22.33;;
32810;SDS011;65470;47.324;8.548;2023-02-11T00:22:06;37.83;;;24.77;;
32810;SDS011;65470;47.324;8.548;2023-02-11T00:24:31;34.50;;;23.92;;
32810;SDS011;65470;47.324;8.548;2023-02-11T00:26:58;35.40;;;23.45;;
32810;SDS011;65470;47.324;8.548;2023-02-11T00:29:24;36.15;;;24.20;;
32810;SDS011;65470;47.324;8.548;2023-02-11T00:31:49;36.33;;;23.70;;
32810;SDS011;65470;47.324;8.548;2023-02-11T00:34:15;40.72;;;24.60;;
32810;SDS011;65470;47.324;8.548;2023-02-11T00:36:41;39.72;;;25.58;;
32810;SDS011;65470;47.324;8.548;2023-02-11T00:39:07;39.97;;;26.83;;
32810;SDS011;65470;47.324;8.548;2023-02-11T00:41:33;39.95;;;25.27;;
32810;SDS011;65470;47.324;8.548;2023-02-11T00:43:59;35.55;;;24.10;;
32810;SDS011;65470;47.324;8.548;2023-02-11T00:46:25;33.70;;;22.98;;
32810;SDS011;65470;47.324;8.548;2023-02-11T00:48:51;36.95;;;24.08;;
32810;SDS011;65470;47.324;8.548;2023-02-11T00:51:19;34.03;;;24.00;;
32810;SDS011;65470;47.324;8.548;2023-02-11T00:53:44;38.97;;;24.55;;
32810;SDS011;65470;47.324;8.548;2023-02-11T00:56:10;40.53;;;24.38;;
32810;SDS011;65470;47.324;8.548;2023-02-11T00:58:36;41.10;;;25.60;;
32810;SDS011;65470;47.324;8.548;2023-02-11T01:01:01;35.05;;;23.35;;
32810;SDS011;65470;47.324;8.548;2023-02-11T01:03:27;39.25;;;25.20;;
32810;SDS011;65470;47.324;8.548;2023-02-11T01:05:53;43.28;;;26.42;;
32810;SDS011;65470;47.324;8.548;2023-02-11T01:08:19;33.72;;;23.10;;
32810;SDS011;65470;47.324;8.548;2023-02-11T01:10:52;39.95;;;25.83;;
32810;SDS011;65470;47.324;8.548;2023-02-11T01:13:38;39.08;;;24.58;;
32810;SDS011;65470;47.324;8.548;2023-02-11T01:16:07;37.00;;;23.90;;
32810;SDS011;65470;47.324;8.548;2023-02-11T01:18:34;40.83;;;25.60;;
32810;SDS011;65470;47.324;8.548;2023-02-11T01:21:00;37.35;;;24.73;;
32810;SDS011;65470;47.324;8.548;2023-02-11T01:23:26;45.55;;;27.08;;
32810;SDS011;65470;47.324;8.548;2023-02-11T01:25:52;42.08;;;26.30;;
32810;SDS011;65470;47.324;8.548;2023-02-11T01:28:25;36.78;;;25.52;;
32810;SDS011;65470;47.324;8.548;2023-02-11T01:30:53;40.33;;;25.42;;
32810;SDS011;65470;47.324;8.548;2023-02-11T01:33:19;37.45;;;25.35;;
32810;SDS011;65470;47.324;8.548;2023-02-11T01:35:45;33.15;;;22.55;;
32810;SDS011;65470;47.324;8.548;2023-02-11T01:38:16;36.17;;;24.20;;
32810;SDS011;65470;47.324;8.548;2023-02-11T01:40:47;42.65;;;24.33;;
32810;SDS011;65470;47.324;8.548;2023-02-11T01:43:13;40.17;;;25.13;;
32810;SDS011;65470;47.324;8.548;2023-02-11T01:45:41;39.80;;;24.52;;
32810;SDS011;65470;47.324;8.548;2023-02-11T01:48:25;37.67;;;24.77;;
32810;SDS011;65470;47.324;8.548;2023-02-11T01:51:03;36.75;;;23.50;;
32810;SDS011;65470;47.324;8.548;2023-02-11T01:53:34;35.83;;;23.88;;
32810;SDS011;65470;47.324;8.548;2023-02-11T01:56:21;34.03;;;23.70;;
32810;SDS011;65470;47.324;8.548;2023-02-11T01:59:12;39.35;;;24.60;;
32810;SDS011;65470;47.324;8.548;2023-02-11T02:01:43;38.28;;;25.67;;
32810;SDS011;65470;47.324;8.548;2023-02-11T02:04:14;37.88;;;26.95;;
32810;SDS011;65470;47.324;8.548;2023-02-11T02:06:45;36.53;;;24.83;;
32810;SDS011;65470;47.324;8.548;2023-02-11T02:09:42;39.78;;;25.15;;
32810;SDS011;65470;47.324;8.548;2023-02-11T02:12:13;39.47;;;24.52;;
32810;SDS011;65470;47.324;8.548;2023-02-11T02:14:39;35.75;;;25.73;;
32810;SDS011;65470;47.324;8.548;2023-02-11T02:17:06;37.10;;;24.23;;
32810;SDS011;65470;47.324;8.548;2023-02-11T02:39:08;39.00;;;26.17;;
32810;SDS011;65470;47.324;8.548;2023-02-11T02:41:38;41.33;;;24.80;;
32810;SDS011;65470;47.324;8.548;2023-02-11T02:44:06;38.42;;;23.38;;
32810;SDS011;65470;47.324;8.548;2023-02-11T02:46:33;39.10;;;25.20;;
32810;SDS011;65470;47.324;8.548;2023-02-11T02:48:59;39.80;;;26.40;;
32810;SDS011;65470;47.324;8.548;2023-02-11T03:05:54;36.30;;;24.73;;
32810;SDS011;65470;47.324;8.548;2023-02-11T03:08:39;39.42;;;26.13;;
32810;SDS011;65470;47.324;8.548;2023-02-11T03:11:10;39.58;;;26.00;;
32810;SDS011;65470;47.324;8.548;2023-02-11T03:13:36;39.90;;;24.85;;
32810;SDS011;65470;47.324;8.548;2023-02-11T03:16:07;35.55;;;23.38;;
32810;SDS011;65470;47.324;8.548;2023-02-11T03:18:36;39.25;;;24.33;;
32810;SDS011;65470;47.324;8.548;2023-02-11T03:21:05;37.35;;;24.58;;
32810;SDS011;65470;47.324;8.548;2023-02-11T03:24:07;38.47;;;24.17;;
32810;SDS011;65470;47.324;8.548;2023-02-11T03:26:48;38.83;;;23.75;;
32810;SDS011;65470;47.324;8.548;2023-02-11T03:37:07;33.95;;;23.13;;
32810;SDS011;65470;47.324;8.548;2023-02-11T03:39:38;39.35;;;25.73;;
32810;SDS011;65470;47.324;8.548;2023-02-11T03:42:08;35.30;;;23.25;;
32810;SDS011;65470;47.324;8.548;2023-02-11T03:44:36;41.85;;;24.50;;
32810;SDS011;65470;47.324;8.548;2023-02-11T03:47:08;38.15;;;24.25;;
32810;SDS011;65470;47.324;8.548;2023-02-11T03:49:37;40.03;;;24.17;;
32810;SDS011;65470;47.324;8.548;2023-02-11T03:52:04;42.63;;;24.75;;
32810;SDS011;65470;47.324;8.548;2023-02-11T03:54:32;38.00;;;24.38;;
32810;SDS011;65470;47.324;8.548;2023-02-11T03:56:59;37.58;;;25.25;;
32810;SDS011;65470;47.324;8.548;2023-02-11T03:59:26;37.30;;;25.40;;
32810;SDS011;65470;47.324;8.548;2023-02-11T04:01:53;37.88;;;25.90;;
32810;SDS011;65470;47.324;8.548;2023-02-11T04:04:19;38.55;;;26.48;;
32810;SDS011;65470;47.324;8.548;2023-02-11T04:06:44;39.50;;;26.00;;
32810;SDS011;65470;47.324;8.548;2023-02-11T04:09:10;41.88;;;26.15;;
32810;SDS011;65470;47.324;8.548;2023-02-11T04:11:36;37.40;;;25.80;;
32810;SDS011;65470;47.324;8.548;2023-02-11T04:14:01;36.33;;;25.08;;
32810;SDS011;65470;47.324;8.548;2023-02-11T04:16:27;38.53;;;25.75;;
32810;SDS011;65470;47.324;8.548;2023-02-11T04:18:54;44.17;;;27.98;;
32810;SDS011;65470;47.324;8.548;2023-02-11T04:21:21;41.53;;;26.17;;
32810;SDS011;65470;47.324;8.548;2023-02-11T04:23:46;37.78;;;26.23;;
32810;SDS011;65470;47.324;8.548;2023-02-11T04:26:12;41.03;;;25.98;;
32810;SDS011;65470;47.324;8.548;2023-02-11T04:28:38;43.90;;;28.30;;
32810;SDS011;65470;47.324;8.548;2023-02-11T04:31:04;44.25;;;27.25;;
32810;SDS011;65470;47.324;8.548;2023-02-11T04:33:29;42.13;;;27.40;;
32810;SDS011;65470;47.324;8.548;2023-02-11T04:35:55;42.40;;;26.92;;
32810;SDS011;65470;47.324;8.548;2023-02-11T04:38:20;42.53;;;27.58;;
32810;SDS011;65470;47.324;8.548;2023-02-11T04:40:48;42.25;;;26.23;;
32810;SDS011;65470;47.324;8.548;2023-02-11T04:43:14;43.05;;;28.35;;
32810;SDS011;65470;47.324;8.548;2023-02-11T04:45:39;43.72;;;27.42;;
32810;SDS011;65470;47.324;8.548;2023-02-11T04:48:05;46.00;;;28.42;;
32810;SDS011;65470;47.324;8.548;2023-02-11T04:50:31;42.08;;;27.65;;
32810;SDS011;65470;47.324;8.548;2023-02-11T04:52:56;44.63;;;28.67;;
32810;SDS011;65470;47.324;8.548;2023-02-11T04:55:22;40.33;;;27.10;;
32810;SDS011;65470;47.324;8.548;2023-02-11T04:57:48;41.60;;;27.88;;
32810;SDS011;65470;47.324;8.548;2023-02-11T05:00:14;45.72;;;26.55;;
32810;SDS011;65470;47.324;8.548;2023-02-11T05:02:40;38.88;;;26.08;;
32810;SDS011;65470;47.324;8.548;2023-02-11T05:05:05;44.50;;;28.10;;
32810;SDS011;65470;47.324;8.548;2023-02-11T05:07:31;43.45;;;26.95;;
32810;SDS011;65470;47.324;8.548;2023-02-11T05:09:57;46.15;;;28.23;;
32810;SDS011;65470;47.324;8.548;2023-02-11T05:12:22;43.90;;;28.83;;
32810;SDS011;65470;47.324;8.548;2023-02-11T05:14:48;44.95;;;28.25;;
32810;SDS011;65470;47.324;8.548;2023-02-11T05:17:14;43.40;;;27.98;;
32810;SDS011;65470;47.324;8.548;2023-02-11T05:19:40;43.92;;;28.20;;
32810;SDS011;65470;47.324;8.548;2023-02-11T05:22:06;47.92;;;28.63;;
32810;SDS011;65470;47.324;8.548;2023-02-11T05:24:32;41.63;;;27.85;;
32810;SDS011;65470;47.324;8.548;2023-02-11T05:26:58;45.47;;;28.23;;
32810;SDS011;65470;47.324;8.548;2023-02-11T05:29:24;44.92;;;28.17;;
32810;SDS011;65470;47.324;8.548;2023-02-11T05:31:50;47.40;;;28.67;;
32810;SDS011;65470;47.324;8.548;2023-02-11T05:34:15;42.83;;;25.80;;
32810;SDS011;65470;47.324;8.548;2023-02-11T05:36:41;44.35;;;27.67;;
32810;SDS011;65470;47.324;8.548;2023-02-11T05:39:06;46.33;;;29.15;;
32810;SDS011;65470;47.324;8.548;2023-02-11T05:41:32;44.30;;;27.98;;
32810;SDS011;65470;47.324;8.548;2023-02-11T05:43:58;41.95;;;27.88;;
32810;SDS011;65470;47.324;8.548;2023-02-11T05:46:23;42.30;;;27.80;;
32810;SDS011;65470;47.324;8.548;2023-02-11T05:48:49;44.38;;;26.60;;
32810;SDS011;65470;47.324;8.548;2023-02-11T05:51:14;47.13;;;29.73;;
32810;SDS011;65470;47.324;8.548;2023-02-11T05:53:40;47.67;;;28.50;;
32810;SDS011;65470;47.324;8.548;2023-02-11T05:56:05;43.50;;;26.80;;
32810;SDS011;65470;47.324;8.548;2023-02-11T05:58:31;39.80;;;25.27;;
32810;SDS011;65470;47.324;8.548;2023-02-11T06:00:57;37.50;;;24.05;;
32810;SDS011;65470;47.324;8.548;2023-02-11T06:03:22;40.40;;;25.55;;
32810;SDS011;65470;47.324;8.548;2023-02-11T06:05:48;42.85;;;27.90;;
32810;SDS011;65470;47.324;8.548;2023-02-11T06:08:14;41.67;;;26.42;;
32810;SDS011;65470;47.324;8.548;2023-02-11T06:10:39;45.72;;;26.05;;
32810;SDS011;65470;47.324;8.548;2023-02-11T06:13:08;35.92;;;24.73;;
32810;SDS011;65470;47.324;8.548;2023-02-11T06:15:34;38.88;;;26.58;;
32810;SDS011;65470;47.324;8.548;2023-02-11T06:18:00;47.08;;;27.70;;
32810;SDS011;65470;47.324;8.548;2023-02-11T06:20:25;44.80;;;28.25;;
32810;SDS011;65470;47.324;8.548;2023-02-11T06:22:51;46.67;;;29.50;;
32810;SDS011;65470;47.324;8.548;2023-02-11T06:25:16;45.08;;;29.20;;
32810;SDS011;65470;47.324;8.548;2023-02-11T06:27:42;47.90;;;29.80;;
32810;SDS011;65470;47.324;8.548;2023-02-11T06:30:08;41.28;;;26.70;;
32810;SDS011;65470;47.324;8.548;2023-02-11T06:32:34;48.58;;;30.02;;
32810;SDS011;65470;47.324;8.548;2023-02-11T06:35:00;46.38;;;28.40;;
32810;SDS011;65470;47.324;8.548;2023-02-11T06:37:25;43.10;;;28.88;;
32810;SDS011;65470;47.324;8.548;2023-02-11T06:39:51;47.92;;;27.92;;
32810;SDS011;65470;47.324;8.548;2023-02-11T06:42:17;45.55;;;28.65;;
32810;SDS011;65470;47.324;8.548;2023-02-11T06:44:42;45.63;;;28.50;;
32810;SDS011;65470;47.324;8.548;2023-02-11T06:47:08;43.72;;;28.77;;
32810;SDS011;65470;47.324;8.548;2023-02-11T06:49:34;45.92;;;29.60;;
32810;SDS011;65470;47.324;8.548;2023-02-11T06:52:00;43.85;;;27.85;;
32810;SDS011;65470;47.324;8.548;2023-02-11T06:54:25;43.30;;;28.42;;
32810;SDS011;65470;47.324;8.548;2023-02-11T06:56:51;44.83;;;28.55;;
32810;SDS011;65470;47.324;8.548;2023-02-11T06:59:17;43.15;;;28.13;;
32810;SDS011;65470;47.324;8.548;2023-02-11T07:01:44;47.08;;;29.92;;
32810;SDS011;65470;47.324;8.548;2023-02-11T07:04:10;49.20;;;27.40;;
32810;SDS011;65470;47.324;8.548;2023-02-11T07:06:36;43.33;;;26.52;;
32810;SDS011;65470;47.324;8.548;2023-02-11T07:09:03;47.03;;;28.55;;
32810;SDS011;65470;47.324;8.548;2023-02-11T07:11:29;45.10;;;28.83;;
32810;SDS011;65470;47.324;8.548;2023-02-11T07:13:58;42.03;;;27.55;;
32810;SDS011;65470;47.324;8.548;2023-02-11T07:16:26;41.85;;;27.17;;
32810;SDS011;65470;47.324;8.548;2023-02-11T07:18:52;39.15;;;27.00;;
32810;SDS011;65470;47.324;8.548;2023-02-11T07:21:19;42.60;;;26.08;;
32810;SDS011;65470;47.324;8.548;2023-02-11T07:23:46;36.35;;;26.17;;
32810;SDS011;65470;47.324;8.548;2023-02-11T07:26:16;36.40;;;25.85;;
32810;SDS011;65470;47.324;8.548;2023-02-11T07:28:44;37.20;;;26.05;;
32810;SDS011;65470;47.324;8.548;2023-02-11T07:31:17;43.67;;;30.02;;
32810;SDS011;65470;47.324;8.548;2023-02-11T07:33:44;37.65;;;27.60;;
32810;SDS011;65470;47.324;8.548;2023-02-11T07:36:10;35.65;;;25.67;;
32810;SDS011;65470;47.324;8.548;2023-02-11T07:38:38;45.72;;;28.67;;
32810;SDS011;65470;47.324;8.548;2023-02-11T07:41:05;36.95;;;25.80;;
32810;SDS011;65470;47.324;8.548;2023-02-11T07:43:33;33.53;;;25.38;;
32810;SDS011;65470;47.324;8.548;2023-02-11T07:46:03;33.95;;;26.00;;
32810;SDS011;65470;47.324;8.548;2023-02-11T07:48:30;31.83;;;25.00;;
32810;SDS011;65470;47.324;8.548;2023-02-11T07:51:03;31.17;;;24.50;;
32810;SDS011;65470;47.324;8.548;2023-02-11T07:53:34;36.10;;;24.60;;
32810;SDS011;65470;47.324;8.548;2023-02-11T07:56:01;29.13;;;23.92;;
32810;SDS011;65470;47.324;8.548;2023-02-11T07:58:30;29.45;;;23.92;;
32810;SDS011;65470;47.324;8.548;2023-02-11T08:01:00;32.78;;;26.58;;
32810;SDS011;65470;47.324;8.548;2023-02-11T08:03:27;34.15;;;25.02;;
32810;SDS011;65470;47.324;8.548;2023-02-11T08:05:53;29.75;;;24.48;;
32810;SDS011;65470;47.324;8.548;2023-02-11T08:08:19;31.90;;;24.63;;
32810;SDS011;65470;47.324;8.548;2023-02-11T08:10:44;29.95;;;23.30;;
32810;SDS011;65470;47.324;8.548;2023-02-11T08:13:10;30.25;;;23.23;;
32810;SDS011;65470;47.324;8.548;2023-02-11T08:15:35;27.50;;;22.52;;
32810;SDS011;65470;47.324;8.548;2023-02-11T08:18:01;27.58;;;22.08;;
32810;SDS011;65470;47.324;8.548;2023-02-11T08:20:27;27.25;;;21.95;;
32810;SDS011;65470;47.324;8.548;2023-02-11T08:22:52;27.35;;;22.40;;
32810;SDS011;65470;47.324;8.548;2023-02-11T08:25:18;29.10;;;21.67;;
32810;SDS011;65470;47.324;8.548;2023-02-11T08:27:43;27.08;;;21.17;;
32810;SDS011;65470;47.324;8.548;2023-02-11T08:30:09;30.30;;;22.83;;
32810;SDS011;65470;47.324;8.548;2023-02-11T08:32:35;28.35;;;24.38;;
32810;SDS011;65470;47.324;8.548;2023-02-11T08:35:03;31.05;;;23.20;;
32810;SDS011;65470;47.324;8.548;2023-02-11T08:37:32;26.77;;;23.83;;
32810;SDS011;65470;47.324;8.548;2023-02-11T08:39:58;28.88;;;23.50;;
32810;SDS011;65470;47.324;8.548;2023-02-11T08:42:23;30.08;;;22.73;;
32810;SDS011;65470;47.324;8.548;2023-02-11T08:44:49;31.70;;;24.55;;
32810;SDS011;65470;47.324;8.548;2023-02-11T08:47:15;27.10;;;22.02;;
32810;SDS011;65470;47.324;8.548;2023-02-11T08:49:40;27.60;;;22.83;;
32810;SDS011;65470;47.324;8.548;2023-02-11T08:52:06;25.20;;;21.67;;
32810;SDS011;65470;47.324;8.548;2023-02-11T08:54:32;24.33;;;21.73;;
32810;SDS011;65470;47.324;8.548;2023-02-11T08:56:58;23.70;;;20.80;;
32810;SDS011;65470;47.324;8.548;2023-02-11T08:59:26;26.58;;;20.58;;
32810;SDS011;65470;47.324;8.548;2023-02-11T09:01:52;23.23;;;20.67;;
32810;SDS011;65470;47.324;8.548;2023-02-11T09:04:17;21.30;;;18.92;;
32810;SDS011;65470;47.324;8.548;2023-02-11T09:06:43;21.65;;;19.33;;
32810;SDS011;65470;47.324;8.548;2023-02-11T09:09:10;22.05;;;19.73;;
32810;SDS011;65470;47.324;8.548;2023-02-11T09:11:37;23.48;;;19.75;;
32810;SDS011;65470;47.324;8.548;2023-02-11T09:14:04;22.90;;;20.33;;
32810;SDS011;65470;47.324;8.548;2023-02-11T09:16:31;25.65;;;20.08;;
32810;SDS011;65470;47.324;8.548;2023-02-11T09:18:59;23.15;;;20.65;;
32810;SDS011;65470;47.324;8.548;2023-02-11T09:21:26;26.08;;;20.42;;
32810;SDS011;65470;47.324;8.548;2023-02-11T09:23:53;23.77;;;20.58;;
32810;SDS011;65470;47.324;8.548;2023-02-11T09:26:29;25.17;;;21.17;;
32810;SDS011;65470;47.324;8.548;2023-02-11T09:28:57;28.70;;;20.52;;
32810;SDS011;65470;47.324;8.548;2023-02-11T09:31:23;21.90;;;19.13;;
32810;SDS011;65470;47.324;8.548;2023-02-11T09:33:51;23.42;;;19.45;;
32810;SDS011;65470;47.324;8.548;2023-02-11T09:36:26;25.40;;;20.33;;
32810;SDS011;65470;47.324;8.548;2023-02-11T09:38:53;23.00;;;19.55;;
32810;SDS011;65470;47.324;8.548;2023-02-11T09:43:49;30.20;;;22.52;;
32810;SDS011;65470;47.324;8.548;2023-02-11T09:46:17;27.23;;;23.70;;
32810;SDS011;65470;47.324;8.548;2023-02-11T09:48:46;27.35;;;23.60;;
32810;SDS011;65470;47.324;8.548;2023-02-11T09:54:12;22.92;;;20.42;;
32810;SDS011;65470;47.324;8.548;2023-02-11T09:56:45;27.90;;;22.30;;
32810;SDS011;65470;47.324;8.548;2023-02-11T09:59:14;27.83;;;22.65;;
32810;SDS011;65470;47.324;8.548;2023-02-11T10:02:49;21.88;;;19.58;;
32810;SDS011;65470;47.324;8.548;2023-02-11T10:07:33;22.55;;;19.58;;
32810;SDS011;65470;47.324;8.548;2023-02-11T10:10:29;21.55;;;19.23;;
32810;SDS011;65470;47.324;8.548;2023-02-11T10:13:24;20.33;;;18.23;;
32810;SDS011;65470;47.324;8.548;2023-02-11T10:24:59;17.33;;;14.90;;
32810;SDS011;65470;47.324;8.548;2023-02-11T10:27:31;16.75;;;14.18;;
32810;SDS011;65470;47.324;8.548;2023-02-11T10:30:05;17.35;;;14.52;;
32810;SDS011;65470;47.324;8.548;2023-02-11T10:32:50;16.95;;;13.48;;
32810;SDS011;65470;47.324;8.548;2023-02-11T10:35:21;20.25;;;16.08;;
32810;SDS011;65470;47.324;8.548;2023-02-11T10:37:48;18.17;;;15.70;;
32810;SDS011;65470;47.324;8.548;2023-02-11T10:40:18;27.25;;;21.15;;
32810;SDS011;65470;47.324;8.548;2023-02-11T10:42:50;23.05;;;18.20;;
32810;SDS011;65470;47.324;8.548;2023-02-11T10:45:21;19.10;;;16.70;;
32810;SDS011;65470;47.324;8.548;2023-02-11T10:47:47;21.90;;;17.20;;
32810;SDS011;65470;47.324;8.548;2023-02-11T10:52:47;18.85;;;16.55;;
32810;SDS011;65470;47.324;8.548;2023-02-11T10:55:17;18.10;;;16.20;;
32810;SDS011;65470;47.324;8.548;2023-02-11T10:57:52;20.33;;;16.17;;
32810;SDS011;65470;47.324;8.548;2023-02-11T11:03:14;18.48;;;15.15;;
32810;SDS011;65470;47.324;8.548;2023-02-11T11:05:55;21.13;;;16.50;;
32810;SDS011;65470;47.324;8.548;2023-02-11T11:08:36;20.13;;;17.98;;
32810;SDS011;65470;47.324;8.548;2023-02-11T11:11:10;23.67;;;16.48;;
32810;SDS011;65470;47.324;8.548;2023-02-11T11:13:38;18.85;;;16.95;;
32810;SDS011;65470;47.324;8.548;2023-02-11T11:16:18;19.27;;;14.90;;
32810;SDS011;65470;47.324;8.548;2023-02-11T11:19:33;19.98;;;16.52;;
32810;SDS011;65470;47.324;8.548;2023-02-11T11:21:45;22.88;;;16.98;;
32810;SDS011;65470;47.324;8.548;2023-02-11T11:24:32;20.17;;;15.98;;
32810;SDS011;65470;47.324;8.548;2023-02-11T11:27:14;18.80;;;16.25;;
32810;SDS011;65470;47.324;8.548;2023-02-11T11:29:47;22.75;;;16.00;;
32810;SDS011;65470;47.324;8.548;2023-02-11T11:32:22;20.65;;;15.57;;
32810;SDS011;65470;47.324;8.548;2023-02-11T11:34:54;16.08;;;14.25;;
32810;SDS011;65470;47.324;8.548;2023-02-11T11:37:36;17.65;;;14.60;;
32810;SDS011;65470;47.324;8.548;2023-02-11T11:40:19;16.83;;;15.13;;
32810;SDS011;65470;47.324;8.548;2023-02-11T11:43:00;18.50;;;15.57;;
32810;SDS011;65470;47.324;8.548;2023-02-11T11:45:38;18.45;;;14.45;;
32810;SDS011;65470;47.324;8.548;2023-02-11T11:48:27;19.98;;;16.60;;
32810;SDS011;65470;47.324;8.548;2023-02-11T11:51:00;21.00;;;18.58;;
32810;SDS011;65470;47.324;8.548;2023-02-11T11:56:19;22.83;;;20.25;;
32810;SDS011;65470;47.324;8.548;2023-02-11T11:58:57;25.67;;;19.45;;
32810;SDS011;65470;47.324;8.548;2023-02-11T12:15:03;23.30;;;19.95;;
32810;SDS011;65470;47.324;8.548;2023-02-11T12:20:48;24.00;;;20.48;;
32810;SDS011;65470;47.324;8.548;2023-02-11T12:31:35;25.55;;;19.23;;
32810;SDS011;65470;47.324;8.548;2023-02-11T12:40:17;23.67;;;19.98;;
32810;SDS011;65470;47.324;8.548;2023-02-11T12:43:12;21.08;;;18.98;;
32810;SDS011;65470;47.324;8.548;2023-02-11T12:56:40;22.33;;;19.98;;
32810;SDS011;65470;47.324;8.548;2023-02-11T12:59:11;21.45;;;19.35;;
32810;SDS011;65470;47.324;8.548;2023-02-11T13:01:44;19.13;;;17.17;;
32810;SDS011;65470;47.324;8.548;2023-02-11T13:06:50;21.88;;;19.05;;
32810;SDS011;65470;47.324;8.548;2023-02-11T13:09:21;21.60;;;19.38;;
32810;SDS011;65470;47.324;8.548;2023-02-11T13:11:52;23.65;;;19.50;;
32810;SDS011;65470;47.324;8.548;2023-02-11T13:14:23;21.63;;;17.30;;
32810;SDS011;65470;47.324;8.548;2023-02-11T13:16:53;21.13;;;18.00;;
32810;SDS011;65470;47.324;8.548;2023-02-11T13:19:29;22.33;;;16.60;;
32810;SDS011;65470;47.324;8.548;2023-02-11T13:24:47;18.20;;;16.48;;
32810;SDS011;65470;47.324;8.548;2023-02-11T13:30:35;16.40;;;14.80;;
32810;SDS011;65470;47.324;8.548;2023-02-11T13:36:11;17.63;;;15.77;;
32810;SDS011;65470;47.324;8.548;2023-02-11T13:38:39;18.38;;;16.40;;
32810;SDS011;65470;47.324;8.548;2023-02-11T13:43:57;20.92;;;17.58;;
32810;SDS011;65470;47.324;8.548;2023-02-11T13:46:24;17.98;;;15.82;;
32810;SDS011;65470;47.324;8.548;2023-02-11T13:48:53;20.17;;;17.38;;
32810;SDS011;65470;47.324;8.548;2023-02-11T13:51:35;20.67;;;15.75;;
32810;SDS011;65470;47.324;8.548;2023-02-11T13:54:03;23.27;;;17.48;;
32810;SDS011;65470;47.324;8.548;2023-02-11T13:58:56;22.10;;;18.05;;
32810;SDS011;65470;47.324;8.548;2023-02-11T14:01:39;17.17;;;15.35;;
32810;SDS011;65470;47.324;8.548;2023-02-11T14:04:31;17.77;;;15.88;;
32810;SDS011;65470;47.324;8.548;2023-02-11T14:07:25;18.17;;;16.35;;
32810;SDS011;65470;47.324;8.548;2023-02-11T14:13:27;19.80;;;16.67;;
32810;SDS011;65470;47.324;8.548;2023-02-11T14:23:53;15.45;;;13.50;;
32810;SDS011;65470;47.324;8.548;2023-02-11T14:29:17;15.68;;;13.40;;
32810;SDS011;65470;47.324;8.548;2023-02-11T14:31:59;15.80;;;13.02;;
32810;SDS011;65470;47.324;8.548;2023-02-11T14:39:44;14.40;;;12.93;;
32810;SDS011;65470;47.324;8.548;2023-02-11T14:42:22;16.50;;;13.30;;
32810;SDS011;65470;47.324;8.548;2023-02-11T14:44:51;19.20;;;13.73;;
32810;SDS011;65470;47.324;8.548;2023-02-11T14:47:26;18.38;;;13.50;;
32810;SDS011;65470;47.324;8.548;2023-02-11T14:49:59;16.13;;;14.43;;
32810;SDS011;65470;47.324;8.548;2023-02-11T14:52:28;15.05;;;13.55;;
32810;SDS011;65470;47.324;8.548;2023-02-11T14:58:11;20.05;;;15.48;;
32810;SDS011;65470;47.324;8.548;2023-02-11T15:06:00;17.10;;;15.30;;
32810;SDS011;65470;47.324;8.548;2023-02-11T15:08:49;18.67;;;14.38;;
32810;SDS011;65470;47.324;8.548;2023-02-11T15:11:18;20.85;;;16.63;;
32810;SDS011;65470;47.324;8.548;2023-02-11T15:13:46;20.30;;;15.75;;
32810;SDS011;65470;47.324;8.548;2023-02-11T15:16:14;18.58;;;15.77;;
32810;SDS011;65470;47.324;8.548;2023-02-11T15:18:44;17.85;;;15.32;;
32810;SDS011;65470;47.324;8.548;2023-02-11T15:21:18;16.83;;;14.50;;
32810;SDS011;65470;47.324;8.548;2023-02-11T15:24:02;20.05;;;16.45;;
32810;SDS011;65470;47.324;8.548;2023-02-11T15:26:30;21.35;;;16.20;;
32810;SDS011;65470;47.324;8.548;2023-02-11T15:28:56;17.75;;;15.00;;
32810;SDS011;65470;47.324;8.548;2023-02-11T15:31:23;22.38;;;15.60;;
32810;SDS011;65470;47.324;8.548;2023-02-11T15:33:51;19.75;;;15.95;;
32810;SDS011;65470;47.324;8.548;2023-02-11T15:36:19;17.38;;;14.20;;
32810;SDS011;65470;47.324;8.548;2023-02-11T15:41:40;18.63;;;14.90;;
32810;SDS011;65470;47.324;8.548;2023-02-11T15:44:24;16.20;;;12.70;;
32810;SDS011;65470;47.324;8.548;2023-02-11T15:46:54;14.90;;;12.80;;
32810;SDS011;65470;47.324;8.548;2023-02-11T15:49:20;16.45;;;12.95;;
32810;SDS011;65470;47.324;8.548;2023-02-11T15:51:47;17.33;;;12.80;;
32810;SDS011;65470;47.324;8.548;2023-02-11T15:54:18;16.65;;;13.23;;
32810;SDS011;65470;47.324;8.548;2023-02-11T15:56:47;20.27;;;13.52;;
32810;SDS011;65470;47.324;8.548;2023-02-11T16:01:40;19.67;;;15.07;;
32810;SDS011;65470;47.324;8.548;2023-02-11T16:04:06;18.70;;;14.40;;
32810;SDS011;65470;47.324;8.548;2023-02-11T16:06:43;18.15;;;15.05;;
32810;SDS011;65470;47.324;8.548;2023-02-11T16:14:31;18.58;;;13.68;;
32810;SDS011;65470;47.324;8.548;2023-02-11T16:17:00;19.27;;;14.48;;
32810;SDS011;65470;47.324;8.548;2023-02-11T16:19:26;20.08;;;14.95;;
32810;SDS011;65470;47.324;8.548;2023-02-11T16:21:54;20.23;;;14.65;;
32810;SDS011;65470;47.324;8.548;2023-02-11T16:26:55;18.92;;;14.50;;
32810;SDS011;65470;47.324;8.548;2023-02-11T16:29:24;19.42;;;14.18;;
32810;SDS011;65470;47.324;8.548;2023-02-11T16:34:52;19.40;;;15.07;;
32810;SDS011;65470;47.324;8.548;2023-02-11T16:37:21;26.35;;;15.77;;
32810;SDS011;65470;47.324;8.548;2023-02-11T16:39:47;21.80;;;15.13;;
32810;SDS011;65470;47.324;8.548;2023-02-11T16:42:13;22.40;;;16.38;;
32810;SDS011;65470;47.324;8.548;2023-02-11T16:44:39;21.20;;;15.52;;
32810;SDS011;65470;47.324;8.548;2023-02-11T16:47:05;21.67;;;15.27;;
32810;SDS011;65470;47.324;8.548;2023-02-11T16:49:40;18.77;;;14.35;;
32810;SDS011;65470;47.324;8.548;2023-02-11T16:52:07;23.55;;;14.77;;
32810;SDS011;65470;47.324;8.548;2023-02-11T16:54:37;21.75;;;16.23;;
32810;SDS011;65470;47.324;8.548;2023-02-11T16:57:19;23.05;;;16.95;;
32810;SDS011;65470;47.324;8.548;2023-02-11T16:59:46;21.58;;;16.42;;
32810;SDS011;65470;47.324;8.548;2023-02-11T17:02:14;22.83;;;16.70;;
32810;SDS011;65470;47.324;8.548;2023-02-11T17:04:42;24.17;;;16.27;;
32810;SDS011;65470;47.324;8.548;2023-02-11T17:07:08;25.00;;;17.15;;
32810;SDS011;65470;47.324;8.548;2023-02-11T17:09:34;27.65;;;18.05;;
32810;SDS011;65470;47.324;8.548;2023-02-11T17:11:59;23.58;;;17.13;;
32810;SDS011;65470;47.324;8.548;2023-02-11T17:14:25;23.13;;;17.45;;
32810;SDS011;65470;47.324;8.548;2023-02-11T17:16:51;24.35;;;17.40;;
32810;SDS011;65470;47.324;8.548;2023-02-11T17:19:18;22.10;;;16.95;;
32810;SDS011;65470;47.324;8.548;2023-02-11T17:21:45;25.10;;;16.33;;
32810;SDS011;65470;47.324;8.548;2023-02-11T17:24:13;21.10;;;16.75;;